Time;durP1;ratioP1;P1;durP2;ratioP2;P2;SDS_P1;SDS_P2;PMS_P1;PMS_P2;Temp;Humidity;BMP_temperature;BMP_pressure;BME280_temperature;BME280_humidity;BME280_pressure;Samples;Min_cycle;Max_cycle;Signal;HPM_P1;HPM_P2
2023/05/15 00:01:20;;;;;;;74.55;35.40;;;14.20;99.90;;;;;;4979855;28;20046;-74
2023/05/15 00:03:47;;;;;;;70.47;35.08;;;14.20;99.90;;;;;;4997009;28;20038;-74
2023/05/15 00:06:13;;;;;;;76.32;37.38;;;14.20;99.90;;;;;;4996824;28;20045;-74
2023/05/15 00:08:39;;;;;;;67.88;35.00;;;14.20;99.90;;;;;;4979763;28;20118;-75
2023/05/15 00:11:04;;;;;;;71.82;33.88;;;14.20;99.90;;;;;;4997230;28;20106;-75
2023/05/15 00:13:30;;;;;;;74.60;37.30;;;14.40;99.90;;;;;;4997179;28;20050;-75
2023/05/15 00:15:56;;;;;;;65.68;32.92;;;14.50;99.90;;;;;;4997065;28;20050;-75
2023/05/15 00:18:21;;;;;;;67.10;34.70;;;14.40;99.90;;;;;;4996505;28;20125;-75
2023/05/15 00:20:47;;;;;;;69.00;35.70;;;14.60;99.90;;;;;;4979719;28;20125;-75
2023/05/15 00:23:13;;;;;;;70.93;36.40;;;14.70;99.90;;;;;;4996738;28;20038;-74
2023/05/15 00:25:38;;;;;;;68.13;36.05;;;14.60;99.90;;;;;;4979593;28;20049;-75
2023/05/15 00:28:04;;;;;;;76.47;38.30;;;14.60;99.90;;;;;;4996719;28;20050;-74
2023/05/15 00:30:30;;;;;;;76.65;38.35;;;14.50;99.90;;;;;;4996966;28;20085;-74
2023/05/15 00:32:56;;;;;;;69.85;35.05;;;14.30;99.90;;;;;;4997306;28;20038;-74
2023/05/15 00:35:22;;;;;;;71.00;35.97;;;14.20;99.90;;;;;;4996704;28;20049;-75
2023/05/15 00:37:47;;;;;;;76.53;37.78;;;14.10;99.90;;;;;;4979836;28;20046;-75
2023/05/15 00:40:20;;;;;;;87.72;40.63;;;14.20;99.90;;;;;;4996727;28;20042;-74
2023/05/15 00:42:46;;;;;;;77.28;37.60;;;14.10;99.90;;;;;;4997005;28;20390;-74
2023/05/15 00:45:12;;;;;;;69.85;35.75;;;14.10;99.90;;;;;;4996679;28;20046;-74
2023/05/15 00:47:39;;;;;;;81.88;39.45;;;14.20;99.90;;;;;;4996010;28;20058;-74
2023/05/15 00:50:07;;;;;;;77.63;36.53;;;14.20;99.90;;;;;;4996670;28;20054;-74
2023/05/15 00:52:33;;;;;;;87.93;39.95;;;14.20;99.90;;;;;;4996491;28;20046;-75
2023/05/15 00:54:59;;;;;;;80.00;37.50;;;14.20;99.90;;;;;;4979458;28;20069;-74
2023/05/15 00:57:26;;;;;;;73.93;37.92;;;14.20;99.90;;;;;;4997664;28;20050;-74
2023/05/15 00:59:55;;;;;;;71.95;34.85;;;14.00;99.90;;;;;;5000516;28;20104;-74
2023/05/15 01:02:21;;;;;;;70.38;34.58;;;14.00;99.90;;;;;;4967352;28;20069;-74
2023/05/15 01:04:48;;;;;;;79.35;36.92;;;13.80;99.90;;;;;;5000225;28;20428;-74
2023/05/15 01:07:14;;;;;;;70.10;35.30;;;13.80;99.90;;;;;;4999988;28;20129;-74
2023/05/15 01:09:43;;;;;;;67.68;34.38;;;13.90;99.90;;;;;;4982741;28;20442;-74
2023/05/15 01:12:10;;;;;;;66.40;34.17;;;13.90;99.90;;;;;;5000194;28;20161;-75
2023/05/15 01:14:36;;;;;;;65.15;34.72;;;14.00;99.90;;;;;;4982706;28;20077;-74
2023/05/15 01:17:01;;;;;;;84.53;38.03;;;13.80;99.90;;;;;;4982724;28;20455;-74
2023/05/15 01:19:28;;;;;;;73.32;35.88;;;13.70;99.90;;;;;;4982110;28;20051;-74
2023/05/15 01:22:24;;;;;;;78.88;37.58;;;13.70;99.90;;;;;;4982947;28;20104;-74
2023/05/15 01:25:24;;;;;;;74.75;38.13;;;13.80;99.90;;;;;;4999974;28;20046;-74
2023/05/15 01:28:01;;;;;;;67.07;33.40;;;13.70;99.90;;;;;;4999587;28;20049;-76
2023/05/15 01:30:33;;;;;;;70.00;35.05;;;13.80;99.90;;;;;;5000044;28;20062;-74
2023/05/15 01:33:23;;;;;;;64.68;34.08;;;13.90;99.90;;;;;;4982504;28;20043;-74
2023/05/15 01:36:01;;;;;;;62.38;32.72;;;14.00;99.90;;;;;;4999836;28;20069;-74
2023/05/15 01:38:39;;;;;;;68.00;35.20;;;14.20;99.90;;;;;;4999846;28;20101;-74
2023/05/15 01:41:15;;;;;;;71.35;35.90;;;14.00;99.90;;;;;;4982302;28;20048;-74
2023/05/15 01:43:44;;;;;;;69.65;35.97;;;14.00;99.90;;;;;;4999832;28;20077;-74
2023/05/15 01:46:16;;;;;;;79.43;37.35;;;14.00;99.90;;;;;;4982087;28;20043;-74
2023/05/15 01:48:44;;;;;;;58.83;34.10;;;14.00;99.90;;;;;;4998825;28;20055;-74
2023/05/15 01:51:13;;;;;;;70.60;37.47;;;13.90;99.90;;;;;;4999611;28;20043;-74
2023/05/15 01:53:40;;;;;;;72.95;37.28;;;13.90;99.90;;;;;;4999371;28;20034;-75
2023/05/15 01:56:08;;;;;;;62.22;34.22;;;14.00;99.90;;;;;;4999577;28;20042;-74
2023/05/15 01:58:37;;;;;;;65.00;33.58;;;14.10;99.90;;;;;;4965761;28;20046;-74
2023/05/15 02:01:04;;;;;;;71.45;36.25;;;14.20;99.90;;;;;;4982238;28;20081;-74
2023/05/15 02:03:33;;;;;;;73.60;36.67;;;14.30;99.90;;;;;;4999013;28;20042;-74
2023/05/15 02:06:01;;;;;;;79.25;37.88;;;14.30;99.90;;;;;;4999135;28;20041;-74
2023/05/15 02:08:29;;;;;;;75.97;37.58;;;14.10;99.90;;;;;;4998889;28;20038;-74
2023/05/15 02:10:58;;;;;;;71.88;35.83;;;14.10;99.90;;;;;;4999034;28;20403;-74
2023/05/15 02:13:25;;;;;;;68.00;35.55;;;14.00;99.90;;;;;;4981972;28;20542;-75
2023/05/15 02:15:51;;;;;;;70.60;37.53;;;14.00;99.90;;;;;;4998722;28;20126;-75
2023/05/15 02:18:17;;;;;;;85.03;39.33;;;14.00;99.90;;;;;;4998757;28;20069;-74
2023/05/15 02:20:43;;;;;;;78.18;37.72;;;14.10;99.90;;;;;;4998959;28;20038;-74
2023/05/15 02:23:08;;;;;;;87.88;40.03;;;13.80;99.90;;;;;;4998937;28;20339;-75
2023/05/15 02:26:04;;;;;;;87.22;39.33;;;13.50;99.90;;;;;;4998608;28;20034;-74
2023/05/15 02:29:07;;;;;;;74.07;36.85;;;13.30;99.90;;;;;;4979717;28;20459;-75
2023/05/15 02:31:39;;;;;;;71.35;36.17;;;13.50;99.90;;;;;;4998777;28;20049;-74
2023/05/15 02:34:10;;;;;;;74.38;36.58;;;13.50;99.90;;;;;;4998730;28;20051;-74
2023/05/15 02:36:40;;;;;;;71.78;36.42;;;13.60;99.90;;;;;;4998793;28;20048;-74
2023/05/15 02:39:06;;;;;;;85.53;39.80;;;13.70;99.90;;;;;;4981553;28;20041;-75
2023/05/15 02:41:35;;;;;;;77.80;38.60;;;13.80;99.90;;;;;;4998584;28;20050;-74
2023/05/15 02:44:02;;;;;;;78.45;36.47;;;13.80;99.90;;;;;;4998590;28;20050;-74
2023/05/15 02:46:29;;;;;;;75.60;36.03;;;13.70;99.90;;;;;;4980906;28;20039;-74
2023/05/15 02:48:55;;;;;;;76.47;36.58;;;13.70;99.90;;;;;;4980640;28;20058;-74
2023/05/15 02:51:20;;;;;;;65.13;33.30;;;13.70;99.90;;;;;;4998055;28;20053;-77
2023/05/15 02:53:47;;;;;;;64.10;32.47;;;13.50;99.90;;;;;;4998415;28;20042;-74
2023/05/15 02:56:13;;;;;;;69.45;34.00;;;13.50;99.90;;;;;;4998133;28;20427;-74
2023/05/15 02:58:39;;;;;;;68.53;34.42;;;13.60;99.90;;;;;;4998032;28;20050;-74
2023/05/15 03:01:05;;;;;;;68.10;34.80;;;13.40;99.90;;;;;;4998074;28;20054;-74
2023/05/15 03:03:31;;;;;;;64.50;33.00;;;13.60;99.90;;;;;;4998114;28;20126;-75
2023/05/15 03:05:57;;;;;;;73.20;35.72;;;13.70;99.90;;;;;;4998069;28;20042;-75
2023/05/15 03:08:22;;;;;;;66.57;33.47;;;13.70;99.90;;;;;;4997770;28;20054;-75
2023/05/15 03:10:48;;;;;;;80.45;36.95;;;13.60;99.90;;;;;;4980836;28;20088;-74
2023/05/15 03:13:14;;;;;;;65.65;33.83;;;13.60;99.90;;;;;;4997991;28;20423;-75
2023/05/15 03:15:39;;;;;;;91.88;39.88;;;13.70;99.90;;;;;;4980555;28;20064;-75
2023/05/15 03:18:05;;;;;;;71.88;35.88;;;13.70;99.90;;;;;;4997210;28;20042;-74
2023/05/15 03:20:30;;;;;;;78.15;36.80;;;13.50;99.90;;;;;;4979775;28;20049;-75
2023/05/15 03:22:56;;;;;;;65.05;33.65;;;13.50;99.90;;;;;;4997590;28;20082;-74
2023/05/15 03:25:22;;;;;;;77.82;35.00;;;13.40;99.90;;;;;;4997704;28;20043;-75
2023/05/15 03:27:47;;;;;;;63.92;32.03;;;13.30;99.90;;;;;;4980293;28;20373;-75
2023/05/15 03:30:13;;;;;;;78.97;34.40;;;13.30;99.90;;;;;;4997537;28;20051;-74
2023/05/15 03:32:39;;;;;;;81.50;35.95;;;13.20;99.90;;;;;;4980283;28;20030;-74
2023/05/15 03:35:05;;;;;;;73.82;34.67;;;13.10;99.90;;;;;;4980311;28;20125;-74
2023/05/15 03:37:31;;;;;;;75.75;34.47;;;13.00;99.90;;;;;;4997549;28;20423;-74
2023/05/15 03:39:57;;;;;;;74.55;34.00;;;12.80;99.90;;;;;;4980067;28;20050;-74
2023/05/15 03:42:23;;;;;;;72.25;33.30;;;12.70;99.90;;;;;;4997358;28;20045;-74
2023/05/15 03:44:49;;;;;;;61.70;30.77;;;12.60;99.90;;;;;;4997499;28;20042;-74
2023/05/15 03:47:15;;;;;;;68.85;30.42;;;12.60;99.90;;;;;;4997054;28;20050;-74
2023/05/15 03:49:41;;;;;;;66.38;31.25;;;12.50;99.90;;;;;;4996883;28;20042;-74
2023/05/15 03:52:07;;;;;;;61.50;30.85;;;12.40;99.90;;;;;;4997164;28;20046;-74
2023/05/15 03:54:33;;;;;;;62.90;29.67;;;12.30;99.90;;;;;;4997428;28;20100;-75
2023/05/15 03:56:59;;;;;;;68.25;30.48;;;12.20;99.90;;;;;;4980139;28;20414;-75
2023/05/15 03:59:25;;;;;;;69.53;31.60;;;12.30;99.90;;;;;;4997429;28;20070;-75
2023/05/15 04:01:50;;;;;;;65.90;30.75;;;12.30;99.90;;;;;;4979844;28;20343;-74
2023/05/15 04:04:16;;;;;;;54.78;27.90;;;12.30;99.90;;;;;;4980110;28;20039;-74
2023/05/15 04:06:42;;;;;;;61.13;29.67;;;12.40;99.90;;;;;;4996777;28;20047;-75
2023/05/15 04:09:07;;;;;;;48.65;25.20;;;12.60;99.90;;;;;;4979921;28;20042;-75
2023/05/15 04:11:33;;;;;;;49.42;25.08;;;12.60;99.90;;;;;;4979922;28;20038;-75
2023/05/15 04:13:59;;;;;;;41.10;23.33;;;12.70;99.90;;;;;;4997151;28;20050;-75
2023/05/15 04:16:25;;;;;;;46.45;24.08;;;12.80;99.90;;;;;;4979795;28;20097;-74
2023/05/15 04:18:50;;;;;;;41.28;22.80;;;12.90;99.90;;;;;;4979313;28;20038;-76
2023/05/15 04:21:16;;;;;;;48.75;25.77;;;12.80;99.90;;;;;;4979789;28;20074;-74
2023/05/15 04:23:42;;;;;;;46.40;24.75;;;12.90;99.90;;;;;;4996978;28;20104;-74
2023/05/15 04:26:08;;;;;;;41.50;23.58;;;13.00;99.90;;;;;;4996771;28;20045;-74
2023/05/15 04:28:34;;;;;;;44.33;22.95;;;13.10;99.90;;;;;;4996971;28;20045;-74
2023/05/15 04:30:59;;;;;;;38.25;22.77;;;13.20;99.90;;;;;;4996427;28;20092;-75
2023/05/15 04:33:25;;;;;;;39.95;22.83;;;13.10;99.90;;;;;;4983513;28;20038;-74
2023/05/15 04:35:52;;;;;;;38.40;24.13;;;13.30;99.90;;;;;;5000817;28;20116;-75
2023/05/15 04:38:18;;;;;;;38.35;23.10;;;13.30;99.90;;;;;;5000962;28;20030;-75
2023/05/15 04:40:44;;;;;;;40.22;22.45;;;13.20;99.90;;;;;;5000735;28;20042;-74
2023/05/15 04:43:10;;;;;;;40.30;24.45;;;13.30;99.90;;;;;;5000740;28;20035;-74
2023/05/15 04:45:35;;;;;;;38.72;24.27;;;13.30;99.90;;;;;;5000826;28;20424;-75
2023/05/15 04:48:01;;;;;;;34.92;23.95;;;13.30;99.90;;;;;;5000045;28;20386;-75
2023/05/15 04:50:27;;;;;;;40.33;23.10;;;13.30;99.90;;;;;;5000377;28;20057;-75
2023/05/15 04:52:53;;;;;;;33.95;22.95;;;13.30;99.90;;;;;;5000551;28;20093;-75
2023/05/15 04:55:19;;;;;;;28.90;20.67;;;13.40;99.90;;;;;;5000684;28;20480;-74
2023/05/15 04:57:46;;;;;;;29.70;20.20;;;13.50;99.90;;;;;;4983132;28;20085;-75
2023/05/15 05:00:13;;;;;;;33.88;21.20;;;13.50;99.90;;;;;;5000422;28;20112;-75
2023/05/15 05:02:39;;;;;;;31.05;20.60;;;13.40;99.90;;;;;;4983149;28;20054;-75
2023/05/15 05:05:06;;;;;;;27.33;19.25;;;13.60;99.90;;;;;;4982970;28;20423;-75
2023/05/15 05:07:33;;;;;;;24.42;18.23;;;13.60;99.90;;;;;;5000082;28;20416;-75
2023/05/15 05:09:58;;;;;;;29.58;20.40;;;13.80;99.90;;;;;;4982739;28;20093;-75
2023/05/15 05:12:24;;;;;;;26.55;18.75;;;13.90;99.90;;;;;;5000127;28;20375;-75
2023/05/15 05:14:50;;;;;;;33.97;18.90;;;13.90;99.90;;;;;;4982951;28;20104;-75
2023/05/15 05:17:15;;;;;;;30.17;19.92;;;13.90;99.90;;;;;;4999947;28;20042;-75
2023/05/15 05:19:41;;;;;;;25.45;18.25;;;14.00;99.90;;;;;;4982475;28;20085;-75
2023/05/15 05:22:07;;;;;;;29.50;19.15;;;13.90;99.90;;;;;;5000194;28;20049;-74
2023/05/15 05:24:39;;;;;;;28.25;18.48;;;14.00;99.90;;;;;;5000017;28;20123;-74
2023/05/15 05:27:05;;;;;;;26.25;16.90;;;14.10;99.90;;;;;;4999718;28;20419;-74
2023/05/15 05:29:31;;;;;;;23.38;16.90;;;14.20;99.90;;;;;;4982489;28;20038;-74
2023/05/15 05:31:57;;;;;;;24.38;17.20;;;14.20;99.90;;;;;;4982364;28;20678;-75
2023/05/15 05:34:23;;;;;;;25.05;16.67;;;14.30;99.90;;;;;;4999979;28;20113;-75
2023/05/15 05:36:49;;;;;;;25.98;17.75;;;14.20;99.90;;;;;;4999644;28;20042;-74
2023/05/15 05:39:15;;;;;;;24.70;17.60;;;14.20;99.90;;;;;;4999540;28;20034;-74
2023/05/15 05:41:42;;;;;;;26.83;17.95;;;14.20;99.90;;;;;;4999601;28;20162;-74
2023/05/15 05:44:07;;;;;;;31.23;18.65;;;14.30;99.90;;;;;;4998665;28;20089;-74
2023/05/15 05:46:33;;;;;;;26.00;16.38;;;14.50;99.90;;;;;;4999178;28;20038;-76
2023/05/15 05:48:59;;;;;;;25.25;16.20;;;14.50;99.90;;;;;;4998901;28;20062;-74
2023/05/15 05:51:25;;;;;;;22.90;15.65;;;14.30;99.90;;;;;;4999528;28;20046;-74
2023/05/15 05:53:50;;;;;;;24.13;16.05;;;14.40;99.90;;;;;;4999275;28;20081;-74
2023/05/15 05:56:16;;;;;;;24.42;16.92;;;14.30;99.90;;;;;;4999510;28;20057;-74
2023/05/15 05:58:42;;;;;;;22.45;15.68;;;14.30;99.90;;;;;;4982055;28;20054;-74
2023/05/15 06:01:08;;;;;;;26.02;17.05;;;14.20;99.90;;;;;;4999438;28;20043;-74
2023/05/15 06:03:33;;;;;;;24.08;15.20;;;14.30;99.90;;;;;;4999418;28;20038;-74
2023/05/15 06:05:59;;;;;;;22.58;16.00;;;14.30;99.90;;;;;;4999197;28;20117;-74
2023/05/15 06:08:25;;;;;;;21.20;14.82;;;14.30;99.90;;;;;;4998977;28;20423;-75
2023/05/15 06:10:51;;;;;;;22.60;14.95;;;14.40;99.90;;;;;;4999418;28;20042;-75
2023/05/15 06:13:17;;;;;;;19.55;14.60;;;14.50;99.90;;;;;;4998981;28;20343;-75
2023/05/15 06:15:44;;;;;;;21.70;15.45;;;14.40;99.90;;;;;;4981886;28;20096;-75
2023/05/15 06:18:10;;;;;;;25.08;16.52;;;14.30;99.90;;;;;;4981138;28;20058;-75
2023/05/15 06:20:35;;;;;;;23.15;16.80;;;14.40;99.90;;;;;;4981527;28;20038;-75
2023/05/15 06:23:01;;;;;;;22.90;15.88;;;14.40;99.90;;;;;;4998778;28;20050;-74
2023/05/15 06:25:27;;;;;;;23.10;16.08;;;14.20;99.90;;;;;;4998740;28;20038;-74
2023/05/15 06:27:52;;;;;;;25.80;16.55;;;14.10;99.90;;;;;;4998653;28;20435;-74
2023/05/15 06:30:18;;;;;;;23.77;15.63;;;14.20;99.90;;;;;;4998464;28;20045;-76
2023/05/15 06:32:44;;;;;;;24.60;16.65;;;14.30;99.90;;;;;;4965515;28;20046;-75
2023/05/15 06:35:10;;;;;;;23.75;16.20;;;14.40;99.90;;;;;;4998591;28;20343;-75
2023/05/15 06:37:36;;;;;;;23.42;16.20;;;14.50;99.90;;;;;;4995586;28;20118;-75
2023/05/15 06:40:03;;;;;;;26.67;17.65;;;14.40;99.90;;;;;;4988186;28;20045;-74
2023/05/15 06:42:30;;;;;;;27.00;15.80;;;14.40;99.90;;;;;;4984043;28;20047;-74
2023/05/15 06:44:55;;;;;;;25.95;16.58;;;14.20;99.90;;;;;;4979106;28;20038;-76
2023/05/15 06:47:21;;;;;;;23.85;15.30;;;14.10;99.90;;;;;;4978776;28;20499;-75
2023/05/15 06:49:47;;;;;;;21.20;13.82;;;14.20;99.90;;;;;;4961763;28;20329;-74
2023/05/15 06:52:12;;;;;;;20.90;13.38;;;14.50;99.90;;;;;;4961656;28;20094;-74
2023/05/15 06:54:40;;;;;;;20.92;14.32;;;14.60;99.90;;;;;;4978872;28;20035;-74
2023/05/15 06:57:06;;;;;;;20.70;13.02;;;14.50;99.90;;;;;;4978684;28;20055;-75
2023/05/15 06:59:34;;;;;;;19.50;13.18;;;14.70;99.90;;;;;;4978788;28;20093;-75
2023/05/15 07:02:03;;;;;;;19.52;13.23;;;14.90;99.90;;;;;;4978632;28;20305;-75
2023/05/15 07:04:29;;;;;;;18.83;12.65;;;15.10;99.90;;;;;;4978696;28;20372;-75
2023/05/15 07:06:55;;;;;;;18.13;13.45;;;15.10;99.90;;;;;;4978616;28;20047;-74
2023/05/15 07:09:21;;;;;;;17.52;12.30;;;15.20;99.90;;;;;;4981666;28;20034;-75
2023/05/15 07:11:47;;;;;;;16.88;11.98;;;15.20;99.90;;;;;;4970143;28;20096;-75
2023/05/15 07:14:12;;;;;;;15.73;11.70;;;15.20;99.90;;;;;;4987175;28;20434;-75
2023/05/15 07:16:38;;;;;;;18.05;11.10;;;15.20;99.90;;;;;;4972986;28;20058;-75
2023/05/15 07:19:04;;;;;;;15.20;10.35;;;15.10;99.90;;;;;;4997371;28;20041;-74
2023/05/15 07:21:29;;;;;;;21.48;11.95;;;15.10;99.90;;;;;;4980326;28;20177;-74
2023/05/15 07:23:55;;;;;;;16.73;11.35;;;15.00;99.90;;;;;;4980712;28;20053;-74
2023/05/15 07:26:21;;;;;;;13.65;10.45;;;15.10;99.90;;;;;;4980323;28;20038;-74
2023/05/15 07:28:46;;;;;;;13.85;9.70;;;15.40;99.90;;;;;;4997509;28;20042;-69
2023/05/15 07:31:12;;;;;;;15.48;10.52;;;15.50;99.90;;;;;;4997704;28;20082;-72
2023/05/15 07:33:38;;;;;;;15.60;10.13;;;15.50;99.90;;;;;;4997676;28;20038;-71
2023/05/15 07:36:04;;;;;;;15.00;10.43;;;15.50;99.90;;;;;;4997538;28;20331;-71
2023/05/15 07:38:31;;;;;;;14.73;9.88;;;15.70;99.90;;;;;;4995732;28;20194;-73
2023/05/15 07:40:56;;;;;;;15.23;9.43;;;15.60;99.90;;;;;;4985685;28;20038;-70
2023/05/15 07:43:22;;;;;;;13.10;9.38;;;15.90;99.90;;;;;;4974754;28;20129;-70
2023/05/15 07:45:48;;;;;;;11.77;9.63;;;16.00;99.90;;;;;;4997454;28;20077;-70
2023/05/15 07:48:18;;;;;;;15.00;10.20;;;16.00;99.90;;;;;;4996635;28;20436;-70
2023/05/15 07:50:45;;;;;;;17.13;10.30;;;16.00;99.90;;;;;;4997430;28;20042;-70
2023/05/15 07:53:12;;;;;;;12.63;9.57;;;16.10;99.90;;;;;;4997255;28;20060;-70
2023/05/15 07:55:38;;;;;;;13.23;9.95;;;16.10;99.90;;;;;;4997539;28;20042;-71
2023/05/15 07:58:03;;;;;;;14.05;9.70;;;16.10;99.90;;;;;;4998390;28;20312;-71
2023/05/15 08:00:29;;;;;;;11.57;9.88;;;15.80;99.90;;;;;;4998475;28;20046;-70
2023/05/15 08:02:55;;;;;;;12.25;9.35;;;16.00;99.90;;;;;;4997168;28;20039;-70
2023/05/15 08:05:21;;;;;;;12.82;8.75;;;16.20;99.90;;;;;;4997089;28;20420;-70
2023/05/15 08:07:46;;;;;;;15.70;9.05;;;16.30;99.90;;;;;;4996857;28;20435;-69
2023/05/15 08:10:12;;;;;;;11.55;8.20;;;16.50;99.90;;;;;;4995956;28;20424;-69
2023/05/15 08:12:37;;;;;;;14.23;8.93;;;16.30;99.90;;;;;;4997117;28;20046;-70
2023/05/15 08:15:03;;;;;;;12.35;8.15;;;16.20;99.90;;;;;;4997134;28;20427;-70
2023/05/15 08:17:29;;;;;;;11.15;8.55;;;16.30;99.90;;;;;;4997205;28;20335;-69
2023/05/15 08:19:55;;;;;;;13.38;8.40;;;16.50;99.90;;;;;;4996602;28;20454;-69
2023/05/15 08:22:20;;;;;;;13.43;8.68;;;16.50;99.90;;;;;;4997180;28;20095;-70
2023/05/15 08:24:46;;;;;;;14.10;10.30;;;16.60;99.90;;;;;;4996849;28;20042;-69
2023/05/15 08:27:12;;;;;;;12.85;9.00;;;16.60;99.90;;;;;;4996893;28;20046;-71
2023/05/15 08:29:39;;;;;;;14.38;8.77;;;16.60;99.90;;;;;;4996955;28;20443;-88
2023/05/15 08:32:06;;;;;;;14.90;8.95;;;16.60;99.90;;;;;;4979806;28;20093;-84
2023/05/15 08:34:32;;;;;;;14.90;8.98;;;15.90;99.90;;;;;;4996048;28;20052;-88
2023/05/15 08:36:58;;;;;;;12.95;9.23;;;15.60;99.90;;;;;;4995984;28;20125;-82
2023/05/15 08:39:24;;;;;;;14.52;9.18;;;15.60;99.90;;;;;;4997046;28;20041;-88
2023/05/15 08:42:14;;;;;;;13.23;9.18;;;15.70;99.90;;;;;;4996204;28;20387;-81
2023/05/15 08:44:40;;;;;;;13.27;9.43;;;15.20;99.90;;;;;;4997057;28;20372;-80
2023/05/15 08:47:06;;;;;;;14.68;9.40;;;14.90;99.90;;;;;;4996367;28;20057;-80
2023/05/15 08:49:55;;;;;;;15.35;10.05;;;15.00;99.90;;;;;;4996396;28;20391;-80
2023/05/15 08:52:22;;;;;;;13.23;9.70;;;15.30;99.90;;;;;;4995399;28;20515;-81
2023/05/15 08:54:48;;;;;;;12.77;9.43;;;15.50;99.90;;;;;;4996770;28;20035;-80
2023/05/15 08:57:15;;;;;;;16.80;10.50;;;15.50;99.90;;;;;;4996692;28;20359;-80
2023/05/15 08:59:41;;;;;;;12.93;9.30;;;15.60;99.90;;;;;;4995579;28;20050;-80
2023/05/15 09:02:06;;;;;;;13.07;8.35;;;15.90;99.90;;;;;;4995848;28;20052;-80
2023/05/15 09:04:32;;;;;;;12.55;8.60;;;16.20;99.90;;;;;;4979344;28;20071;-80
2023/05/15 09:07:00;;;;;;;14.38;8.70;;;16.50;99.90;;;;;;4979266;28;20038;-81
2023/05/15 09:09:28;;;;;;;13.25;8.52;;;16.20;99.90;;;;;;4995508;28;20109;-80
2023/05/15 09:11:54;;;;;;;12.15;8.20;;;16.00;99.90;;;;;;4963512;28;20042;-80
2023/05/15 09:14:20;;;;;;;10.75;7.75;;;15.70;99.90;;;;;;4995417;28;20101;-81
2023/05/15 09:16:49;;;;;;;11.27;7.88;;;15.90;99.90;;;;;;4963165;28;20042;-82
2023/05/15 09:19:16;;;;;;;13.07;9.10;;;16.10;99.90;;;;;;4997238;28;20046;-83
2023/05/15 09:21:42;;;;;;;15.52;9.38;;;16.10;99.90;;;;;;4999085;28;20403;-87
2023/05/15 09:24:23;;;;;;;14.02;8.23;;;15.80;99.90;;;;;;4985995;28;20043;-87
2023/05/15 09:27:08;;;;;;;12.32;8.73;;;15.90;99.90;;;;;;5002064;28;20347;-88
2023/05/15 09:29:35;;;;;;;12.85;7.55;;;15.60;99.90;;;;;;4999120;28;20169;-88
2023/05/15 09:32:11;;;;;;;16.23;8.38;;;15.90;99.90;;;;;;4983432;28;20389;-88
2023/05/15 09:34:39;;;;;;;12.30;7.97;;;15.90;99.90;;;;;;4999088;28;20328;-83
2023/05/15 09:37:08;;;;;;;10.68;7.38;;;15.70;99.90;;;;;;4998828;28;20054;-84
2023/05/15 09:39:41;;;;;;;9.85;8.13;;;16.20;99.90;;;;;;4998882;28;20392;-83
2023/05/15 09:42:09;;;;;;;15.27;9.13;;;15.90;99.90;;;;;;4982795;28;20057;-77
2023/05/15 09:44:34;;;;;;;12.13;8.57;;;16.00;99.90;;;;;;4999570;28;20046;-76
2023/05/15 09:47:01;;;;;;;12.98;7.35;;;16.30;99.90;;;;;;4999044;28;20049;-74
2023/05/15 09:49:30;;;;;;;46.05;10.57;;;16.30;99.90;;;;;;4998477;28;20054;-84
2023/05/15 09:51:59;;;;;;;10.45;7.60;;;16.70;99.90;;;;;;4998468;28;20045;-72
2023/05/15 09:54:26;;;;;;;10.77;7.57;;;17.10;99.90;;;;;;5003523;28;20128;-82
2023/05/15 09:56:52;;;;;;;12.60;8.80;;;16.70;99.90;;;;;;4998193;28;20347;-72
2023/05/15 09:59:21;;;;;;;13.10;9.20;;;17.00;99.90;;;;;;4999591;28;20042;-71
2023/05/15 10:01:48;;;;;;;12.00;8.18;;;17.40;99.90;;;;;;4999268;28;20078;-74
2023/05/15 10:04:15;;;;;;;11.15;8.50;;;17.80;99.90;;;;;;4999891;28;20141;-82
2023/05/15 10:06:44;;;;;;;13.13;9.00;;;17.80;99.90;;;;;;4999523;28;20052;-75
2023/05/15 10:09:11;;;;;;;13.02;8.95;;;17.80;99.90;;;;;;4999231;28;20077;-75
2023/05/15 10:11:40;;;;;;;14.82;9.10;;;17.80;99.90;;;;;;4998190;28;20339;-85
2023/05/15 10:14:08;;;;;;;17.10;10.32;;;17.70;99.90;;;;;;4998989;28;20038;-77
2023/05/15 10:16:36;;;;;;;10.65;8.68;;;17.80;99.90;;;;;;4999296;28;20108;-84
2023/05/15 10:19:09;;;;;;;12.70;8.77;;;17.90;99.90;;;;;;4998486;28;20100;-80
2023/05/15 10:21:37;;;;;;;9.75;7.88;;;18.10;99.90;;;;;;4999924;28;20065;-80
2023/05/15 10:24:04;;;;;;;11.68;7.70;;;18.30;99.90;;;;;;4999875;28;20420;-81
2023/05/15 10:26:41;;;;;;;11.65;7.40;;;18.40;99.90;;;;;;4999297;28;20050;-86
2023/05/15 10:29:16;;;;;;;9.02;7.25;;;18.30;99.90;;;;;;4998192;28;20053;-92
2023/05/15 10:31:42;;;;;;;9.82;6.75;;;17.90;99.90;;;;;;4998192;28;20196;-87
2023/05/15 10:34:09;;;;;;;9.10;6.65;;;17.40;99.90;;;;;;4981935;28;20372;-87
2023/05/15 10:36:37;;;;;;;10.95;7.13;;;17.00;99.90;;;;;;4998048;28;20045;-87
2023/05/15 10:39:04;;;;;;;9.70;6.47;;;17.40;99.90;;;;;;4997750;28;20125;-88
2023/05/15 10:41:34;;;;;;;9.32;7.15;;;17.50;99.90;;;;;;4965856;28;20089;-88
2023/05/15 10:44:00;;;;;;;10.73;7.20;;;17.90;99.90;;;;;;4997876;28;20038;-85
2023/05/15 10:46:33;;;;;;;10.15;7.45;;;18.10;99.90;;;;;;4981564;28;20129;-87
2023/05/15 10:49:00;;;;;;;11.55;7.40;;;18.40;99.90;;;;;;4997023;28;20094;-87
2023/05/15 10:51:31;;;;;;;11.40;7.18;;;18.40;99.90;;;;;;4997430;28;20109;-74
2023/05/15 10:53:59;;;;;;;11.48;7.80;;;18.90;99.90;;;;;;4998440;28;20034;-73
2023/05/15 10:56:32;;;;;;;11.95;8.18;;;19.40;99.90;;;;;;4998347;28;20120;-77
2023/05/15 10:59:06;;;;;;;11.55;7.28;;;19.60;99.90;;;;;;4998216;28;20054;-73
2023/05/15 11:01:34;;;;;;;12.20;7.53;;;19.60;99.90;;;;;;4998012;28;20046;-74
2023/05/15 11:04:31;;;;;;;10.45;7.50;;;19.90;99.90;;;;;;4998307;28;20054;-73
2023/05/15 11:07:12;;;;;;;12.02;7.05;;;20.40;99.90;;;;;;4997089;28;20395;-73
2023/05/15 11:09:38;;;;;;;9.25;6.47;;;20.80;99.90;;;;;;4998281;28;20100;-73
2023/05/15 11:12:05;;;;;;;11.43;7.00;;;21.20;99.90;;;;;;4997812;28;20336;-74
2023/05/15 11:14:34;;;;;;;8.70;6.55;;;21.50;99.90;;;;;;4999497;28;20328;-73
2023/05/15 11:17:05;;;;;;;11.75;6.90;;;21.00;99.90;;;;;;4983672;28;20049;-71
2023/05/15 11:19:34;;;;;;;11.07;6.97;;;20.80;99.90;;;;;;4977893;28;20127;-70
2023/05/15 11:22:20;;;;;;;11.45;6.47;;;20.60;99.90;;;;;;4978619;28;20038;-71
2023/05/15 11:24:53;;;;;;;6.85;6.15;;;20.80;99.90;;;;;;4978292;28;20105;-72
2023/05/15 11:27:23;;;;;;;8.98;6.15;;;21.00;99.90;;;;;;4978279;28;20442;-72
2023/05/15 11:30:16;;;;;;;8.18;5.68;;;21.00;99.90;;;;;;4978281;28;20043;-72
2023/05/15 11:32:59;;;;;;;9.07;5.88;;;20.90;99.90;;;;;;4978344;28;20036;-71
2023/05/15 11:35:28;;;;;;;10.13;5.47;;;21.20;99.90;;;;;;4978009;28;20078;-70
2023/05/15 11:38:10;;;;;;;8.00;6.28;;;21.40;99.90;;;;;;4978011;28;20340;-71
2023/05/15 11:40:47;;;;;;;7.97;6.55;;;20.90;99.90;;;;;;4977762;28;20043;-86
2023/05/15 11:43:33;;;;;;;9.85;6.32;;;20.30;99.90;;;;;;4960956;28;20495;-86
2023/05/15 11:46:02;;;;;;;12.35;6.28;;;19.40;99.90;;;;;;4961356;28;20046;-89
2023/05/15 11:48:32;;;;;;;10.45;5.88;;;19.00;99.90;;;;;;4960592;28;20137;-88
2023/05/15 11:51:01;;;;;;;11.55;5.90;;;18.90;99.90;;;;;;4945477;28;20392;-89
2023/05/15 11:53:32;;;;;;;5.97;5.03;;;19.30;99.90;;;;;;4929634;28;20042;-87
2023/05/15 11:55:58;;;;;;;8.18;5.43;;;19.40;99.90;;;;;;4944955;28;20038;-86
2023/05/15 11:58:25;;;;;;;8.45;6.75;;;19.00;99.90;;;;;;4945296;28;20052;-90
2023/05/15 12:00:52;;;;;;;9.70;6.90;;;18.70;99.90;;;;;;4961293;28;20089;-89
2023/05/15 12:03:31;;;;;;;10.30;6.80;;;18.20;99.90;;;;;;4945396;28;20078;-88
2023/05/15 12:05:56;;;;;;;9.55;6.63;;;18.30;99.90;;;;;;4961255;28;20440;-89
2023/05/15 12:08:22;;;;;;;9.18;7.18;;;18.10;99.90;;;;;;4944912;28;20082;-83
2023/05/15 12:10:49;;;;;;;10.13;7.20;;;18.10;99.90;;;;;;4945325;28;20031;-88
2023/05/15 12:13:17;;;;;;;10.60;8.50;;;18.30;99.90;;;;;;4945246;28;20511;-88
2023/05/15 12:15:44;;;;;;;14.35;8.68;;;18.40;99.90;;;;;;4945344;28;20043;-88
2023/05/15 12:18:11;;;;;;;17.35;8.70;;;18.40;99.90;;;;;;4944928;28;20053;-88
2023/05/15 12:20:38;;;;;;;12.48;8.65;;;18.50;99.90;;;;;;4944419;28;20105;-84
2023/05/15 12:23:06;;;;;;;14.05;9.55;;;18.30;99.90;;;;;;4928854;28;20054;-89
2023/05/15 12:25:34;;;;;;;11.43;9.77;;;18.30;99.90;;;;;;4977948;28;20058;-91
2023/05/15 12:28:02;;;;;;;13.52;8.93;;;18.50;99.90;;;;;;4960977;28;20050;-81
2023/05/15 12:30:31;;;;;;;14.02;8.27;;;18.30;99.90;;;;;;4960525;28;20043;-86
2023/05/15 12:33:08;;;;;;;10.55;8.07;;;18.50;99.90;;;;;;4960432;28;20050;-74
2023/05/15 12:35:48;;;;;;;12.90;8.90;;;18.80;99.90;;;;;;4977388;28;20042;-75